createdAt,value
2018-08-23T00:04:08.745Z,23.53
2018-08-23T00:09:12.955Z,23.80
2018-08-23T00:14:16.890Z,25.13
2018-08-23T00:19:20.065Z,24.10
2018-08-23T00:24:24.034Z,22.40
2018-08-23T00:29:28.453Z,25.93
2018-08-23T00:34:33.009Z,25.03
2018-08-23T00:39:36.194Z,25.43
2018-08-23T00:44:52.174Z,29.33
2018-08-23T00:49:55.353Z,28.20
2018-08-23T00:55:08.533Z,28.93
2018-08-23T01:00:16.379Z,29.40
2018-08-23T01:05:25.086Z,29.93
2018-08-23T01:10:28.276Z,29.80
2018-08-23T01:15:32.266Z,30.43
2018-08-23T01:20:35.454Z,28.77
2018-08-23T01:25:39.846Z,29.80
2018-08-23T01:30:43.638Z,31.17
2018-08-23T01:35:47.974Z,30.60
2018-08-23T01:40:53.748Z,30.73
2018-08-23T01:45:56.924Z,31.33
2018-08-23T01:51:00.110Z,30.77
2018-08-23T01:56:03.326Z,30.90
2018-08-23T02:01:16.417Z,30.60
2018-08-23T02:06:19.593Z,31.43
2018-08-23T02:11:22.778Z,29.63
2018-08-23T02:16:25.970Z,32.47
2018-08-23T02:21:29.161Z,29.53
2018-08-23T02:26:32.327Z,34.90
2018-08-23T02:31:35.500Z,35.93
2018-08-23T02:36:38.674Z,33.20
2018-08-23T02:41:41.868Z,35.77
2018-08-23T02:46:45.111Z,33.77
2018-08-23T02:51:51.294Z,33.27
2018-08-23T02:56:58.346Z,35.83
2018-08-23T03:02:01.563Z,33.40
2018-08-23T03:07:04.770Z,34.37
2018-08-23T03:12:10.874Z,35.93
2018-08-23T03:17:18.905Z,35.37
2018-08-23T03:22:22.115Z,37.67
2018-08-23T03:27:25.294Z,38.70
2018-08-23T03:32:29.770Z,38.97
2018-08-23T03:37:32.966Z,35.60
2018-08-23T03:42:36.171Z,38.07
2018-08-23T03:47:44.837Z,43.87
2018-08-23T03:52:49.164Z,41.10
2018-08-23T03:57:53.599Z,44.90
2018-08-23T04:02:59.311Z,43.30
2018-08-23T04:08:07.117Z,42.97
2018-08-23T04:13:10.310Z,44.90
2018-08-23T04:18:17.393Z,43.00
2018-08-23T04:23:20.675Z,40.87
2018-08-23T04:28:23.883Z,42.70
2018-08-23T04:33:27.090Z,42.90
2018-08-23T04:38:30.304Z,43.43
2018-08-23T04:43:33.554Z,44.77
2018-08-23T04:48:36.846Z,47.47
2018-08-23T04:53:40.046Z,49.53
2018-08-23T04:58:43.327Z,43.40
2018-08-23T05:03:46.560Z,45.70
2018-08-23T05:08:55.466Z,46.97
2018-08-23T05:14:00.767Z,45.70
2018-08-23T05:19:03.980Z,45.33
2018-08-23T05:24:11.387Z,49.17
2018-08-23T05:29:14.553Z,49.40
2018-08-23T05:34:17.730Z,49.23
2018-08-23T05:39:22.342Z,50.97
2018-08-23T05:44:25.547Z,50.80
2018-08-23T05:49:29.862Z,54.13
2018-08-23T05:54:33.093Z,51.77
2018-08-23T05:59:36.383Z,55.03
2018-08-23T06:04:42.717Z,55.60
2018-08-23T06:09:46.162Z,54.90
2018-08-23T06:14:49.366Z,55.70
2018-08-23T06:19:52.555Z,53.50
2018-08-23T06:24:56.803Z,53.20
2018-08-23T06:30:00.327Z,52.70
2018-08-23T06:35:07.282Z,50.93
2018-08-23T06:40:10.559Z,48.13
2018-08-23T06:45:13.802Z,50.80
2018-08-23T06:50:17.891Z,53.10
2018-08-23T06:55:27.921Z,50.30
2018-08-23T07:00:31.778Z,50.27
2018-08-23T07:05:35.048Z,50.40
2018-08-23T07:10:39.245Z,51.87
2018-08-23T07:15:51.191Z,51.67
2018-08-23T07:20:54.460Z,53.13
2018-08-23T07:25:58.472Z,51.43
2018-08-23T07:31:01.677Z,53.07
2018-08-23T07:36:17.996Z,52.27
2018-08-23T07:41:21.217Z,53.60
2018-08-23T07:46:24.398Z,47.43
2018-08-23T07:51:27.602Z,43.80
2018-08-23T07:56:30.806Z,45.80
2018-08-23T08:01:34.545Z,42.03
2018-08-23T08:06:38.554Z,43.27
2018-08-23T08:11:47.030Z,40.30
2018-08-23T08:16:50.978Z,32.00
2018-08-23T08:21:55.042Z,31.83
2018-08-23T08:26:59.163Z,33.00
2018-08-23T08:32:03.691Z,31.93
2018-08-23T08:37:06.902Z,29.23
2018-08-23T08:42:10.054Z,28.63
2018-08-23T08:47:14.175Z,25.77
2018-08-23T08:52:18.849Z,25.65
2018-08-23T08:57:24.577Z,20.67
2018-08-23T09:02:31.711Z,25.77
2018-08-23T09:07:36.137Z,20.33
2018-08-23T09:12:44.820Z,23.93
2018-08-23T09:17:47.992Z,20.53
2018-08-23T09:22:55.900Z,17.07
2018-08-23T09:27:59.119Z,17.20
2018-08-23T09:33:09.186Z,17.70
2018-08-23T09:38:14.848Z,18.17
2018-08-23T09:43:18.035Z,17.27
2018-08-23T09:48:21.841Z,17.57
2018-08-23T09:53:25.926Z,16.53
2018-08-23T09:58:34.593Z,14.87
2018-08-23T10:03:43.035Z,13.23
2018-08-23T10:08:53.608Z,11.47
2018-08-23T10:14:21.612Z,11.57
2018-08-23T10:19:30.158Z,12.87
2018-08-23T10:24:33.820Z,11.00
2018-08-23T10:29:37.051Z,10.27
2018-08-23T10:34:40.271Z,11.10
2018-08-23T10:39:43.442Z,14.30
2018-08-23T10:44:47.666Z,12.87
2018-08-23T10:49:50.888Z,12.93
2018-08-23T10:54:54.215Z,14.60
2018-08-23T10:59:57.462Z,13.20
2018-08-23T11:05:01.284Z,14.07
2018-08-23T11:10:09.853Z,10.63
2018-08-23T11:15:18.640Z,13.00
2018-08-23T11:20:25.974Z,11.37
2018-08-23T11:25:29.195Z,10.60
2018-08-23T11:30:32.592Z,11.67
2018-08-23T11:35:36.245Z,9.67
2018-08-23T11:40:39.483Z,9.33
2018-08-23T11:45:43.770Z,8.63
2018-08-23T11:50:48.005Z,6.93
2018-08-23T11:55:51.237Z,8.17
2018-08-23T12:00:58.730Z,8.00
2018-08-23T12:06:03.038Z,6.93
2018-08-23T12:11:10.027Z,6.23
2018-08-23T12:16:13.230Z,5.83
2018-08-23T12:21:16.397Z,6.27
2018-08-23T12:26:19.701Z,5.33
2018-08-23T12:31:23.609Z,4.83
2018-08-23T12:36:32.366Z,5.80
2018-08-23T12:41:41.118Z,5.17
2018-08-23T12:46:44.282Z,4.53
2018-08-23T12:51:47.567Z,4.90
2018-08-23T12:56:50.726Z,4.23
2018-08-23T13:01:54.034Z,4.77
2018-08-23T13:07:01.248Z,4.47
2018-08-23T13:12:04.508Z,4.83
2018-08-23T13:17:07.773Z,4.37
2018-08-23T13:22:11.010Z,3.67
2018-08-23T13:27:14.242Z,3.40
2018-08-23T13:32:19.898Z,3.40
2018-08-23T13:37:24.645Z,3.23
2018-08-23T13:42:27.890Z,4.10
2018-08-23T13:47:40.235Z,3.27
2018-08-23T13:52:43.538Z,3.70
2018-08-23T13:57:46.802Z,3.97
2018-08-23T14:02:50.070Z,4.50
2018-08-23T14:07:53.274Z,5.43
2018-08-23T14:12:57.136Z,4.57
2018-08-23T14:18:00.310Z,4.27
2018-08-23T14:23:03.545Z,3.50
2018-08-23T14:28:06.846Z,3.10
2018-08-23T14:33:10.150Z,3.43
2018-08-23T14:38:14.988Z,4.00
2018-08-23T14:43:20.511Z,3.77
2018-08-23T14:48:23.679Z,4.87
2018-08-23T14:53:28.234Z,4.30
2018-08-23T14:58:31.605Z,4.33
2018-08-23T15:03:34.790Z,4.40
2018-08-23T15:08:37.958Z,3.93
2018-08-23T15:13:41.187Z,4.73
2018-08-23T15:18:44.401Z,5.40
2018-08-23T15:23:47.652Z,5.17
2018-08-23T15:28:50.986Z,5.40
2018-08-23T15:33:54.954Z,4.27
2018-08-23T15:38:58.205Z,5.63
2018-08-23T15:44:01.482Z,5.50
2018-08-23T15:49:04.730Z,5.57
2018-08-23T15:54:08.386Z,5.43
2018-08-23T15:59:13.294Z,5.07
2018-08-23T16:04:16.754Z,5.00
2018-08-23T16:09:19.930Z,7.40
2018-08-23T16:14:23.202Z,7.23
2018-08-23T16:19:31.844Z,7.27
2018-08-23T16:24:35.117Z,8.27
2018-08-23T16:29:38.269Z,9.47
2018-08-23T16:34:41.666Z,8.70
2018-08-23T16:39:45.538Z,8.60
2018-08-23T16:44:48.720Z,8.90
2018-08-23T16:49:51.990Z,7.77
2018-08-23T16:54:55.337Z,7.87
2018-08-23T16:59:58.626Z,7.33
2018-08-23T17:05:01.849Z,6.70
2018-08-23T17:10:05.248Z,5.63
2018-08-23T17:15:13.483Z,5.77
2018-08-23T17:20:17.358Z,18.50
2018-08-23T17:25:20.724Z,5.97
2018-08-23T17:30:23.815Z,5.83
2018-08-23T17:35:27.113Z,6.30
2018-08-23T17:40:30.271Z,7.27
2018-08-23T17:45:33.463Z,8.07
2018-08-23T17:50:36.717Z,7.30
2018-08-23T17:55:39.930Z,8.77
2018-08-23T18:00:43.037Z,8.17
2018-08-23T18:05:46.317Z,11.10
2018-08-23T18:10:49.507Z,10.20
2018-08-23T18:16:00.134Z,11.40
2018-08-23T18:21:04.418Z,9.70
2018-08-23T18:26:07.598Z,9.80
2018-08-23T18:31:10.891Z,10.77
2018-08-23T18:36:14.076Z,9.13
2018-08-23T18:41:17.286Z,11.27
2018-08-23T18:46:20.534Z,9.70
2018-08-23T18:51:23.746Z,9.00
2018-08-23T18:56:27.516Z,8.87
2018-08-23T19:01:30.841Z,8.43
2018-08-23T19:06:37.054Z,15.33
2018-08-23T19:11:40.422Z,9.00
2018-08-23T19:16:53.710Z,6.77
2018-08-23T19:21:56.935Z,7.00
2018-08-23T19:27:00.408Z,7.67
2018-08-23T19:32:03.788Z,10.13
2018-08-23T19:37:09.054Z,7.80
2018-08-23T19:42:12.295Z,7.30
2018-08-23T19:47:21.698Z,7.40
2018-08-23T19:52:29.541Z,8.43
2018-08-23T19:57:32.783Z,9.67
2018-08-23T20:02:36.186Z,7.80
2018-08-23T20:07:40.430Z,7.80
2018-08-23T20:12:43.696Z,7.37
2018-08-23T20:17:47.002Z,7.27
2018-08-23T20:22:50.134Z,6.50
2018-08-23T20:27:55.440Z,7.27
2018-08-23T20:32:58.680Z,6.57
2018-08-23T20:38:01.859Z,6.43
2018-08-23T20:43:05.202Z,7.13
2018-08-23T20:48:09.479Z,5.73
2018-08-23T20:53:13.794Z,5.00
2018-08-23T20:58:17.097Z,5.27
2018-08-23T21:03:20.404Z,4.13
2018-08-23T21:08:27.339Z,4.10
2018-08-23T21:13:30.554Z,3.83
2018-08-23T21:18:33.767Z,3.50
2018-08-23T21:23:36.974Z,3.80
2018-08-23T21:28:40.230Z,3.97
2018-08-23T21:33:47.018Z,3.70
2018-08-23T21:38:50.576Z,3.00
2018-08-23T21:43:53.762Z,3.37
2018-08-23T21:48:56.955Z,2.90
2018-08-23T21:54:00.202Z,3.23
2018-08-23T21:59:03.423Z,3.13
2018-08-23T22:04:06.639Z,2.47
2018-08-23T22:09:09.909Z,2.23
2018-08-23T22:14:13.106Z,2.77
2018-08-23T22:19:16.429Z,2.20
2018-08-23T22:24:19.698Z,2.07
2018-08-23T22:29:23.949Z,2.13
2018-08-23T22:34:27.133Z,2.00
2018-08-23T22:39:30.885Z,2.07
2018-08-23T22:44:35.094Z,1.90
2018-08-23T22:49:39.446Z,2.20
2018-08-23T22:54:42.622Z,1.90
2018-08-23T22:59:45.834Z,2.07
2018-08-23T23:04:49.114Z,1.90
2018-08-23T23:09:52.387Z,2.00
2018-08-23T23:15:01.127Z,1.43
2018-08-23T23:20:04.386Z,2.00
2018-08-23T23:25:07.568Z,1.50
2018-08-23T23:30:10.866Z,1.50
2018-08-23T23:35:14.038Z,1.10
2018-08-23T23:40:17.270Z,1.40
2018-08-23T23:45:20.492Z,1.23
2018-08-23T23:50:23.655Z,1.20
2018-08-23T23:55:26.843Z,1.20
